sensor_id;sensor_type;location;lat;lon;timestamp;temperature;humidity
12446;DHT22;6287;50.984;7.022;2023-01-24T00:00:53;3.70;99.90
12446;DHT22;6287;50.984;7.022;2023-01-24T00:03:19;3.80;99.90
12446;DHT22;6287;50.984;7.022;2023-01-24T00:05:46;3.80;99.90
12446;DHT22;6287;50.984;7.022;2023-01-24T00:08:16;3.80;99.90
12446;DHT22;6287;50.984;7.022;2023-01-24T00:10:43;3.80;99.90
12446;DHT22;6287;50.984;7.022;2023-01-24T00:13:13;3.80;99.90
12446;DHT22;6287;50.984;7.022;2023-01-24T00:15:39;3.80;99.90
12446;DHT22;6287;50.984;7.022;2023-01-24T00:18:09;3.70;99.90
12446;DHT22;6287;50.984;7.022;2023-01-24T00:20:35;3.80;99.90
12446;DHT22;6287;50.984;7.022;2023-01-24T00:23:00;3.70;99.90
12446;DHT22;6287;50.984;7.022;2023-01-24T00:25:28;3.70;99.90
12446;DHT22;6287;50.984;7.022;2023-01-24T00:27:54;6.80;99.90
12446;DHT22;6287;50.984;7.022;2023-01-24T00:30:19;3.80;99.90
12446;DHT22;6287;50.984;7.022;2023-01-24T00:32:45;3.80;99.90
12446;DHT22;6287;50.984;7.022;2023-01-24T00:35:11;3.70;99.90
12446;DHT22;6287;50.984;7.022;2023-01-24T00:37:37;3.70;99.90
12446;DHT22;6287;50.984;7.022;2023-01-24T00:40:06;3.70;99.90
12446;DHT22;6287;50.984;7.022;2023-01-24T00:42:31;3.70;99.90
12446;DHT22;6287;50.984;7.022;2023-01-24T00:44:57;3.70;99.90
12446;DHT22;6287;50.984;7.022;2023-01-24T00:47:27;3.70;99.90
12446;DHT22;6287;50.984;7.022;2023-01-24T00:49:55;3.70;99.90
12446;DHT22;6287;50.984;7.022;2023-01-24T00:52:23;3.70;99.90
12446;DHT22;6287;50.984;7.022;2023-01-24T00:54:49;3.70;99.90
12446;DHT22;6287;50.984;7.022;2023-01-24T00:57:17;3.60;99.90
12446;DHT22;6287;50.984;7.022;2023-01-24T00:59:42;3.60;99.90
12446;DHT22;6287;50.984;7.022;2023-01-24T01:02:08;3.60;99.90
12446;DHT22;6287;50.984;7.022;2023-01-24T01:04:36;3.60;99.90
12446;DHT22;6287;50.984;7.022;2023-01-24T01:07:01;3.70;99.90
12446;DHT22;6287;50.984;7.022;2023-01-24T01:09:31;3.70;99.90
12446;DHT22;6287;50.984;7.022;2023-01-24T01:11:59;3.70;99.90
12446;DHT22;6287;50.984;7.022;2023-01-24T01:14:25;3.70;99.90
12446;DHT22;6287;50.984;7.022;2023-01-24T01:16:50;3.60;99.90
12446;DHT22;6287;50.984;7.022;2023-01-24T01:19:16;3.70;99.90
12446;DHT22;6287;50.984;7.022;2023-01-24T01:21:41;3.70;99.90
12446;DHT22;6287;50.984;7.022;2023-01-24T01:24:10;3.70;99.90
12446;DHT22;6287;50.984;7.022;2023-01-24T01:26:35;3.70;99.90
12446;DHT22;6287;50.984;7.022;2023-01-24T01:29:03;3.70;99.90
12446;DHT22;6287;50.984;7.022;2023-01-24T01:31:31;3.60;99.90
12446;DHT22;6287;50.984;7.022;2023-01-24T01:33:57;3.60;99.90
12446;DHT22;6287;50.984;7.022;2023-01-24T01:36:25;5.10;99.90
12446;DHT22;6287;50.984;7.022;2023-01-24T01:38:52;3.70;99.90
12446;DHT22;6287;50.984;7.022;2023-01-24T01:41:21;3.70;99.90
12446;DHT22;6287;50.984;7.022;2023-01-24T01:43:46;3.70;99.90
12446;DHT22;6287;50.984;7.022;2023-01-24T01:46:40;3.60;99.90
12446;DHT22;6287;50.984;7.022;2023-01-24T01:49:16;3.60;99.90
12446;DHT22;6287;50.984;7.022;2023-01-24T01:51:46;3.60;99.90
12446;DHT22;6287;50.984;7.022;2023-01-24T01:56:48;3.50;99.90
12446;DHT22;6287;50.984;7.022;2023-01-24T01:59:21;3.50;99.90
12446;DHT22;6287;50.984;7.022;2023-01-24T02:01:49;3.50;99.90
12446;DHT22;6287;50.984;7.022;2023-01-24T02:04:23;3.60;99.90
12446;DHT22;6287;50.984;7.022;2023-01-24T02:06:59;3.60;99.90
12446;DHT22;6287;50.984;7.022;2023-01-24T02:09:34;3.60;99.90
12446;DHT22;6287;50.984;7.022;2023-01-24T02:12:05;3.60;99.90
12446;DHT22;6287;50.984;7.022;2023-01-24T02:14:33;3.50;99.90
12446;DHT22;6287;50.984;7.022;2023-01-24T02:17:19;3.50;99.90
12446;DHT22;6287;50.984;7.022;2023-01-24T02:25:31;3.50;99.90
12446;DHT22;6287;50.984;7.022;2023-01-24T02:28:02;3.50;99.90
12446;DHT22;6287;50.984;7.022;2023-01-24T02:30:27;3.50;99.90
12446;DHT22;6287;50.984;7.022;2023-01-24T02:32:56;3.50;99.90
12446;DHT22;6287;50.984;7.022;2023-01-24T02:35:33;3.50;99.90
12446;DHT22;6287;50.984;7.022;2023-01-24T02:38:00;3.60;99.90
12446;DHT22;6287;50.984;7.022;2023-01-24T02:40:31;3.50;99.90
12446;DHT22;6287;50.984;7.022;2023-01-24T02:43:00;3.50;99.90
12446;DHT22;6287;50.984;7.022;2023-01-24T02:45:33;3.50;99.90
12446;DHT22;6287;50.984;7.022;2023-01-24T02:48:02;3.40;99.90
12446;DHT22;6287;50.984;7.022;2023-01-24T02:50:32;3.40;99.90
12446;DHT22;6287;50.984;7.022;2023-01-24T02:53:19;3.40;99.90
12446;DHT22;6287;50.984;7.022;2023-01-24T02:56:05;3.40;99.90
12446;DHT22;6287;50.984;7.022;2023-01-24T02:58:49;3.30;99.90
12446;DHT22;6287;50.984;7.022;2023-01-24T03:01:15;3.30;99.90
12446;DHT22;6287;50.984;7.022;2023-01-24T03:03:42;3.30;99.90
12446;DHT22;6287;50.984;7.022;2023-01-24T03:06:09;4.40;99.90
12446;DHT22;6287;50.984;7.022;2023-01-24T03:08:37;3.30;99.90
12446;DHT22;6287;50.984;7.022;2023-01-24T03:11:04;3.20;99.90
12446;DHT22;6287;50.984;7.022;2023-01-24T03:13:30;3.20;99.90
12446;DHT22;6287;50.984;7.022;2023-01-24T03:16:15;3.20;99.90
12446;DHT22;6287;50.984;7.022;2023-01-24T03:19:02;3.10;99.90
12446;DHT22;6287;50.984;7.022;2023-01-24T03:21:46;3.10;99.90
12446;DHT22;6287;50.984;7.022;2023-01-24T03:24:30;3.00;99.90
12446;DHT22;6287;50.984;7.022;2023-01-24T03:27:15;3.00;99.90
12446;DHT22;6287;50.984;7.022;2023-01-24T03:30:02;3.00;99.90
12446;DHT22;6287;50.984;7.022;2023-01-24T03:32:49;3.00;99.90
12446;DHT22;6287;50.984;7.022;2023-01-24T03:35:33;2.90;99.90
12446;DHT22;6287;50.984;7.022;2023-01-24T03:38:01;2.90;99.90
12446;DHT22;6287;50.984;7.022;2023-01-24T03:40:46;2.80;99.90
12446;DHT22;6287;50.984;7.022;2023-01-24T03:43:16;2.90;99.90
12446;DHT22;6287;50.984;7.022;2023-01-24T03:45:42;2.90;99.90
12446;DHT22;6287;50.984;7.022;2023-01-24T03:48:09;2.90;99.90
12446;DHT22;6287;50.984;7.022;2023-01-24T03:50:42;2.90;99.90
12446;DHT22;6287;50.984;7.022;2023-01-24T03:53:28;2.90;99.90
12446;DHT22;6287;50.984;7.022;2023-01-24T03:55:59;3.00;99.90
12446;DHT22;6287;50.984;7.022;2023-01-24T03:58:30;3.00;99.90
12446;DHT22;6287;50.984;7.022;2023-01-24T04:00:58;3.00;99.90
12446;DHT22;6287;50.984;7.022;2023-01-24T04:03:24;3.00;99.90
12446;DHT22;6287;50.984;7.022;2023-01-24T04:05:50;3.00;99.90
12446;DHT22;6287;50.984;7.022;2023-01-24T04:08:18;3.00;99.90
12446;DHT22;6287;50.984;7.022;2023-01-24T04:10:44;3.00;99.90
12446;DHT22;6287;50.984;7.022;2023-01-24T04:13:12;3.00;99.90
12446;DHT22;6287;50.984;7.022;2023-01-24T04:15:38;2.90;99.90
12446;DHT22;6287;50.984;7.022;2023-01-24T04:18:09;2.90;99.90
12446;DHT22;6287;50.984;7.022;2023-01-24T04:20:36;2.90;99.90
12446;DHT22;6287;50.984;7.022;2023-01-24T04:23:07;2.90;99.90
12446;DHT22;6287;50.984;7.022;2023-01-24T04:25:33;3.00;99.90
12446;DHT22;6287;50.984;7.022;2023-01-24T04:28:04;3.00;99.90
12446;DHT22;6287;50.984;7.022;2023-01-24T04:33:01;3.00;99.90
12446;DHT22;6287;50.984;7.022;2023-01-24T04:35:28;3.00;99.90
12446;DHT22;6287;50.984;7.022;2023-01-24T04:37:59;2.90;99.90
12446;DHT22;6287;50.984;7.022;2023-01-24T04:40:30;2.90;99.90
12446;DHT22;6287;50.984;7.022;2023-01-24T04:42:58;2.90;99.90
12446;DHT22;6287;50.984;7.022;2023-01-24T04:45:26;2.90;99.90
12446;DHT22;6287;50.984;7.022;2023-01-24T04:47:53;2.80;99.90
12446;DHT22;6287;50.984;7.022;2023-01-24T04:50:19;2.90;99.90
12446;DHT22;6287;50.984;7.022;2023-01-24T04:52:44;2.90;99.90
12446;DHT22;6287;50.984;7.022;2023-01-24T04:55:12;2.90;99.90
12446;DHT22;6287;50.984;7.022;2023-01-24T04:57:38;2.90;99.90
12446;DHT22;6287;50.984;7.022;2023-01-24T05:00:06;2.90;99.90
12446;DHT22;6287;50.984;7.022;2023-01-24T05:02:36;2.90;99.90
12446;DHT22;6287;50.984;7.022;2023-01-24T05:05:04;2.90;99.90
12446;DHT22;6287;50.984;7.022;2023-01-24T05:07:32;2.90;99.90
12446;DHT22;6287;50.984;7.022;2023-01-24T05:09:57;2.90;99.90
12446;DHT22;6287;50.984;7.022;2023-01-24T05:12:25;2.90;99.90
12446;DHT22;6287;50.984;7.022;2023-01-24T05:17:16;2.80;99.90
12446;DHT22;6287;50.984;7.022;2023-01-24T05:19:45;2.80;99.90
12446;DHT22;6287;50.984;7.022;2023-01-24T05:22:13;2.90;99.90
12446;DHT22;6287;50.984;7.022;2023-01-24T05:24:43;2.90;99.90
12446;DHT22;6287;50.984;7.022;2023-01-24T05:27:13;2.90;99.90
12446;DHT22;6287;50.984;7.022;2023-01-24T05:29:39;2.90;99.90
12446;DHT22;6287;50.984;7.022;2023-01-24T05:32:04;3.00;99.90
12446;DHT22;6287;50.984;7.022;2023-01-24T05:34:30;2.90;99.90
12446;DHT22;6287;50.984;7.022;2023-01-24T05:36:56;2.90;99.90
12446;DHT22;6287;50.984;7.022;2023-01-24T05:39:21;3.00;99.90
12446;DHT22;6287;50.984;7.022;2023-01-24T05:41:47;2.90;99.90
12446;DHT22;6287;50.984;7.022;2023-01-24T05:44:15;3.00;99.90
12446;DHT22;6287;50.984;7.022;2023-01-24T05:46:43;3.00;99.90
12446;DHT22;6287;50.984;7.022;2023-01-24T05:49:11;3.00;99.90
12446;DHT22;6287;50.984;7.022;2023-01-24T05:51:39;3.00;99.90
12446;DHT22;6287;50.984;7.022;2023-01-24T05:54:06;3.00;99.90
12446;DHT22;6287;50.984;7.022;2023-01-24T05:56:34;3.00;99.90
12446;DHT22;6287;50.984;7.022;2023-01-24T05:59:00;3.00;99.90
12446;DHT22;6287;50.984;7.022;2023-01-24T06:01:27;3.00;99.90
12446;DHT22;6287;50.984;7.022;2023-01-24T06:03:53;3.00;99.90
12446;DHT22;6287;50.984;7.022;2023-01-24T06:06:23;3.00;99.90
12446;DHT22;6287;50.984;7.022;2023-01-24T06:08:52;3.00;99.90
12446;DHT22;6287;50.984;7.022;2023-01-24T06:11:21;3.00;99.90
12446;DHT22;6287;50.984;7.022;2023-01-24T06:13:55;3.00;99.90
12446;DHT22;6287;50.984;7.022;2023-01-24T06:16:23;2.90;99.90
12446;DHT22;6287;50.984;7.022;2023-01-24T06:18:50;3.00;99.90
12446;DHT22;6287;50.984;7.022;2023-01-24T06:21:48;3.00;99.90
12446;DHT22;6287;50.984;7.022;2023-01-24T06:24:24;3.00;99.90
12446;DHT22;6287;50.984;7.022;2023-01-24T06:26:50;3.00;99.90
12446;DHT22;6287;50.984;7.022;2023-01-24T06:29:17;2.90;99.90
12446;DHT22;6287;50.984;7.022;2023-01-24T06:39:52;2.90;99.90
12446;DHT22;6287;50.984;7.022;2023-01-24T06:42:22;2.90;99.90
12446;DHT22;6287;50.984;7.022;2023-01-24T06:44:50;2.90;99.90
12446;DHT22;6287;50.984;7.022;2023-01-24T06:47:16;2.90;99.90
12446;DHT22;6287;50.984;7.022;2023-01-24T06:49:42;2.90;99.90
12446;DHT22;6287;50.984;7.022;2023-01-24T06:52:13;2.90;99.90
12446;DHT22;6287;50.984;7.022;2023-01-24T06:54:38;2.90;99.90
12446;DHT22;6287;50.984;7.022;2023-01-24T06:57:06;2.80;99.90
12446;DHT22;6287;50.984;7.022;2023-01-24T06:59:32;2.80;99.90
12446;DHT22;6287;50.984;7.022;2023-01-24T07:02:00;2.80;99.90
12446;DHT22;6287;50.984;7.022;2023-01-24T07:04:25;2.80;99.90
12446;DHT22;6287;50.984;7.022;2023-01-24T07:06:53;2.80;99.90
12446;DHT22;6287;50.984;7.022;2023-01-24T07:09:20;2.80;99.90
12446;DHT22;6287;50.984;7.022;2023-01-24T07:11:50;2.80;99.90
12446;DHT22;6287;50.984;7.022;2023-01-24T07:14:18;2.80;99.90
12446;DHT22;6287;50.984;7.022;2023-01-24T07:16:44;2.90;99.90
12446;DHT22;6287;50.984;7.022;2023-01-24T07:19:21;2.90;99.90
12446;DHT22;6287;50.984;7.022;2023-01-24T07:21:55;2.90;99.90
12446;DHT22;6287;50.984;7.022;2023-01-24T07:24:28;2.90;99.90
12446;DHT22;6287;50.984;7.022;2023-01-24T07:26:55;2.90;99.90
12446;DHT22;6287;50.984;7.022;2023-01-24T07:29:24;2.90;99.90
12446;DHT22;6287;50.984;7.022;2023-01-24T07:31:55;2.90;99.90
12446;DHT22;6287;50.984;7.022;2023-01-24T07:34:23;2.90;99.90
12446;DHT22;6287;50.984;7.022;2023-01-24T07:36:51;2.90;99.90
12446;DHT22;6287;50.984;7.022;2023-01-24T07:41:44;2.90;99.90
12446;DHT22;6287;50.984;7.022;2023-01-24T07:44:11;2.90;99.90
12446;DHT22;6287;50.984;7.022;2023-01-24T07:46:37;2.90;99.90
12446;DHT22;6287;50.984;7.022;2023-01-24T07:49:06;2.90;99.90
12446;DHT22;6287;50.984;7.022;2023-01-24T07:51:31;2.90;99.90
12446;DHT22;6287;50.984;7.022;2023-01-24T07:54:00;2.90;99.90
12446;DHT22;6287;50.984;7.022;2023-01-24T07:56:26;2.90;99.90
12446;DHT22;6287;50.984;7.022;2023-01-24T07:58:51;3.00;99.90
12446;DHT22;6287;50.984;7.022;2023-01-24T08:01:21;3.00;99.90
12446;DHT22;6287;50.984;7.022;2023-01-24T08:03:47;3.00;99.90
12446;DHT22;6287;50.984;7.022;2023-01-24T08:06:13;3.00;99.90
12446;DHT22;6287;50.984;7.022;2023-01-24T08:11:05;3.10;99.90
12446;DHT22;6287;50.984;7.022;2023-01-24T08:13:33;3.00;99.90
12446;DHT22;6287;50.984;7.022;2023-01-24T08:16:05;3.10;99.90
12446;DHT22;6287;50.984;7.022;2023-01-24T08:18:31;3.10;99.90
12446;DHT22;6287;50.984;7.022;2023-01-24T08:20:57;3.10;99.90
12446;DHT22;6287;50.984;7.022;2023-01-24T08:23:23;3.20;99.90
12446;DHT22;6287;50.984;7.022;2023-01-24T08:25:49;3.10;99.90
12446;DHT22;6287;50.984;7.022;2023-01-24T08:28:19;3.10;99.90
12446;DHT22;6287;50.984;7.022;2023-01-24T08:30:47;3.20;99.90
12446;DHT22;6287;50.984;7.022;2023-01-24T08:33:15;3.20;99.90
12446;DHT22;6287;50.984;7.022;2023-01-24T08:35:45;3.20;99.90
12446;DHT22;6287;50.984;7.022;2023-01-24T08:38:12;3.20;99.90
12446;DHT22;6287;50.984;7.022;2023-01-24T08:40:37;3.30;99.90
12446;DHT22;6287;50.984;7.022;2023-01-24T08:43:03;3.30;99.90
12446;DHT22;6287;50.984;7.022;2023-01-24T08:45:32;3.30;99.90
12446;DHT22;6287;50.984;7.022;2023-01-24T08:48:00;3.30;99.90
12446;DHT22;6287;50.984;7.022;2023-01-24T08:50:26;3.30;99.90
12446;DHT22;6287;50.984;7.022;2023-01-24T08:52:56;3.40;99.90
12446;DHT22;6287;50.984;7.022;2023-01-24T08:55:24;3.40;99.90
12446;DHT22;6287;50.984;7.022;2023-01-24T08:57:52;3.40;99.90
12446;DHT22;6287;50.984;7.022;2023-01-24T09:00:23;3.40;99.90
12446;DHT22;6287;50.984;7.022;2023-01-24T09:02:51;3.50;99.90
12446;DHT22;6287;50.984;7.022;2023-01-24T09:05:21;3.50;99.90
12446;DHT22;6287;50.984;7.022;2023-01-24T09:07:47;3.50;99.90
12446;DHT22;6287;50.984;7.022;2023-01-24T09:10:12;3.50;99.90
12446;DHT22;6287;50.984;7.022;2023-01-24T09:12:38;3.60;99.90
12446;DHT22;6287;50.984;7.022;2023-01-24T09:15:04;3.60;99.90
12446;DHT22;6287;50.984;7.022;2023-01-24T09:17:30;3.60;99.90
12446;DHT22;6287;50.984;7.022;2023-01-24T09:19:57;3.60;99.90
12446;DHT22;6287;50.984;7.022;2023-01-24T09:22:23;3.70;99.90
12446;DHT22;6287;50.984;7.022;2023-01-24T09:24:48;3.60;99.90
12446;DHT22;6287;50.984;7.022;2023-01-24T09:27:14;3.70;99.90
12446;DHT22;6287;50.984;7.022;2023-01-24T09:29:40;3.70;99.90
12446;DHT22;6287;50.984;7.022;2023-01-24T09:32:05;3.70;99.90
12446;DHT22;6287;50.984;7.022;2023-01-24T09:34:33;3.70;99.90
12446;DHT22;6287;50.984;7.022;2023-01-24T09:37:03;3.80;99.90
12446;DHT22;6287;50.984;7.022;2023-01-24T09:39:29;3.80;99.90
12446;DHT22;6287;50.984;7.022;2023-01-24T09:44:44;3.80;99.90
12446;DHT22;6287;50.984;7.022;2023-01-24T09:47:23;3.80;99.90
12446;DHT22;6287;50.984;7.022;2023-01-24T09:52:29;3.90;99.90
12446;DHT22;6287;50.984;7.022;2023-01-24T10:02:54;4.00;99.90
12446;DHT22;6287;50.984;7.022;2023-01-24T10:07:52;4.00;99.90
12446;DHT22;6287;50.984;7.022;2023-01-24T10:10:25;3.90;99.90
12446;DHT22;6287;50.984;7.022;2023-01-24T10:15:48;4.00;99.90
12446;DHT22;6287;50.984;7.022;2023-01-24T10:23:46;4.00;99.90
12446;DHT22;6287;50.984;7.022;2023-01-24T10:26:22;4.10;99.90
12446;DHT22;6287;50.984;7.022;2023-01-24T10:29:09;4.10;99.90
12446;DHT22;6287;50.984;7.022;2023-01-24T10:32:14;4.10;99.90
12446;DHT22;6287;50.984;7.022;2023-01-24T10:34:51;4.00;99.90
12446;DHT22;6287;50.984;7.022;2023-01-24T10:37:34;4.00;99.90
12446;DHT22;6287;50.984;7.022;2023-01-24T10:40:15;4.00;99.90
12446;DHT22;6287;50.984;7.022;2023-01-24T10:42:41;4.10;99.90
12446;DHT22;6287;50.984;7.022;2023-01-24T10:47:57;4.10;99.90
12446;DHT22;6287;50.984;7.022;2023-01-24T10:50:33;4.10;99.90
12446;DHT22;6287;50.984;7.022;2023-01-24T10:55:47;4.10;99.90
12446;DHT22;6287;50.984;7.022;2023-01-24T10:59:03;4.20;99.90
12446;DHT22;6287;50.984;7.022;2023-01-24T11:01:36;4.30;99.90
12446;DHT22;6287;50.984;7.022;2023-01-24T11:04:25;4.20;99.90
12446;DHT22;6287;50.984;7.022;2023-01-24T11:06:52;4.30;99.90
12446;DHT22;6287;50.984;7.022;2023-01-24T11:09:28;4.30;99.90
12446;DHT22;6287;50.984;7.022;2023-01-24T11:11:57;4.30;99.90
12446;DHT22;6287;50.984;7.022;2023-01-24T11:14:31;4.40;99.90
12446;DHT22;6287;50.984;7.022;2023-01-24T11:16:59;4.40;99.90
12446;DHT22;6287;50.984;7.022;2023-01-24T11:19:35;4.40;99.90
12446;DHT22;6287;50.984;7.022;2023-01-24T11:22:17;4.40;99.90
12446;DHT22;6287;50.984;7.022;2023-01-24T11:24:47;4.30;99.90
12446;DHT22;6287;50.984;7.022;2023-01-24T11:27:13;4.40;99.90
12446;DHT22;6287;50.984;7.022;2023-01-24T11:29:42;4.40;99.90
12446;DHT22;6287;50.984;7.022;2023-01-24T11:57:35;4.60;99.90
12446;DHT22;6287;50.984;7.022;2023-01-24T12:12:50;4.70;99.90
12446;DHT22;6287;50.984;7.022;2023-01-24T12:15:25;4.70;99.90
12446;DHT22;6287;50.984;7.022;2023-01-24T12:22:50;4.70;99.90
12446;DHT22;6287;50.984;7.022;2023-01-24T12:25:22;4.70;99.90
12446;DHT22;6287;50.984;7.022;2023-01-24T12:27:53;4.70;99.90
12446;DHT22;6287;50.984;7.022;2023-01-24T12:36:03;4.60;99.90
12446;DHT22;6287;50.984;7.022;2023-01-24T12:38:39;4.50;99.90
12446;DHT22;6287;50.984;7.022;2023-01-24T12:41:35;4.60;99.90
12446;DHT22;6287;50.984;7.022;2023-01-24T12:44:29;4.60;99.90
12446;DHT22;6287;50.984;7.022;2023-01-24T12:52:38;4.60;99.90
12446;DHT22;6287;50.984;7.022;2023-01-24T12:55:30;4.60;99.90
12446;DHT22;6287;50.984;7.022;2023-01-24T12:58:19;4.60;99.90
12446;DHT22;6287;50.984;7.022;2023-01-24T13:06:27;4.70;99.90
12446;DHT22;6287;50.984;7.022;2023-01-24T13:09:07;5.50;99.90
12446;DHT22;6287;50.984;7.022;2023-01-24T13:11:42;4.80;99.90
12446;DHT22;6287;50.984;7.022;2023-01-24T13:14:30;4.80;99.90
12446;DHT22;6287;50.984;7.022;2023-01-24T13:36:19;4.90;99.90
12446;DHT22;6287;50.984;7.022;2023-01-24T13:38:46;4.90;99.90
12446;DHT22;6287;50.984;7.022;2023-01-24T13:41:36;4.80;99.90
12446;DHT22;6287;50.984;7.022;2023-01-24T13:44:28;4.80;99.90
12446;DHT22;6287;50.984;7.022;2023-01-24T13:47:01;4.70;99.90
12446;DHT22;6287;50.984;7.022;2023-01-24T13:51:59;4.70;99.90
12446;DHT22;6287;50.984;7.022;2023-01-24T13:54:38;4.70;99.90
12446;DHT22;6287;50.984;7.022;2023-01-24T13:57:20;4.60;99.90
12446;DHT22;6287;50.984;7.022;2023-01-24T14:02:53;4.70;99.90
12446;DHT22;6287;50.984;7.022;2023-01-24T14:10:37;4.80;99.90
12446;DHT22;6287;50.984;7.022;2023-01-24T14:15:54;4.80;99.90
12446;DHT22;6287;50.984;7.022;2023-01-24T14:18:48;4.80;99.90
12446;DHT22;6287;50.984;7.022;2023-01-24T14:21:21;4.60;99.90
12446;DHT22;6287;50.984;7.022;2023-01-24T14:23:59;4.50;99.90
12446;DHT22;6287;50.984;7.022;2023-01-24T14:26:29;4.60;99.90
12446;DHT22;6287;50.984;7.022;2023-01-24T14:29:00;4.60;99.90
12446;DHT22;6287;50.984;7.022;2023-01-24T14:31:31;4.60;99.90
12446;DHT22;6287;50.984;7.022;2023-01-24T14:34:11;4.60;99.90
12446;DHT22;6287;50.984;7.022;2023-01-24T14:36:39;4.60;99.90
12446;DHT22;6287;50.984;7.022;2023-01-24T14:39:23;4.60;99.90
12446;DHT22;6287;50.984;7.022;2023-01-24T14:49:42;4.40;99.90
12446;DHT22;6287;50.984;7.022;2023-01-24T14:52:26;4.50;99.90
12446;DHT22;6287;50.984;7.022;2023-01-24T14:54:59;4.50;99.90
12446;DHT22;6287;50.984;7.022;2023-01-24T14:57:32;4.40;99.90
12446;DHT22;6287;50.984;7.022;2023-01-24T15:02:49;4.40;99.90
12446;DHT22;6287;50.984;7.022;2023-01-24T15:05:30;4.30;99.90
12446;DHT22;6287;50.984;7.022;2023-01-24T15:07:56;4.30;99.90
12446;DHT22;6287;50.984;7.022;2023-01-24T15:10:30;4.20;99.90
12446;DHT22;6287;50.984;7.022;2023-01-24T15:13:00;4.20;99.90
12446;DHT22;6287;50.984;7.022;2023-01-24T15:15:27;4.20;99.90
12446;DHT22;6287;50.984;7.022;2023-01-24T15:18:06;4.10;99.90
12446;DHT22;6287;50.984;7.022;2023-01-24T15:20:35;4.10;99.90
12446;DHT22;6287;50.984;7.022;2023-01-24T15:23:01;4.10;99.90
12446;DHT22;6287;50.984;7.022;2023-01-24T15:25:35;4.10;99.90
12446;DHT22;6287;50.984;7.022;2023-01-24T15:30:54;4.00;99.90
12446;DHT22;6287;50.984;7.022;2023-01-24T15:33:20;3.90;99.90
12446;DHT22;6287;50.984;7.022;2023-01-24T15:35:49;3.80;99.90
12446;DHT22;6287;50.984;7.022;2023-01-24T15:38:24;3.80;99.90
12446;DHT22;6287;50.984;7.022;2023-01-24T15:40:55;3.80;99.90
12446;DHT22;6287;50.984;7.022;2023-01-24T15:43:38;3.80;99.90
12446;DHT22;6287;50.984;7.022;2023-01-24T15:46:39;3.80;99.90
12446;DHT22;6287;50.984;7.022;2023-01-24T15:49:25;3.70;99.90
12446;DHT22;6287;50.984;7.022;2023-01-24T15:54:42;3.70;99.90
12446;DHT22;6287;50.984;7.022;2023-01-24T15:57:24;3.70;99.90
12446;DHT22;6287;50.984;7.022;2023-01-24T16:02:39;5.50;99.90
12446;DHT22;6287;50.984;7.022;2023-01-24T16:05:12;3.70;99.90
12446;DHT22;6287;50.984;7.022;2023-01-24T16:07:40;3.60;99.90
12446;DHT22;6287;50.984;7.022;2023-01-24T16:10:17;3.60;99.90
12446;DHT22;6287;50.984;7.022;2023-01-24T16:12:44;3.60;99.90
12446;DHT22;6287;50.984;7.022;2023-01-24T16:15:16;3.70;99.90
12446;DHT22;6287;50.984;7.022;2023-01-24T16:17:42;3.70;99.90
12446;DHT22;6287;50.984;7.022;2023-01-24T16:22:41;3.60;99.90
12446;DHT22;6287;50.984;7.022;2023-01-24T16:25:16;3.60;99.90
12446;DHT22;6287;50.984;7.022;2023-01-24T16:27:47;3.60;99.90
12446;DHT22;6287;50.984;7.022;2023-01-24T16:30:22;3.60;99.90
12446;DHT22;6287;50.984;7.022;2023-01-24T16:32:49;3.60;99.90
12446;DHT22;6287;50.984;7.022;2023-01-24T16:35:17;3.60;99.90
12446;DHT22;6287;50.984;7.022;2023-01-24T16:37:45;3.60;99.90
12446;DHT22;6287;50.984;7.022;2023-01-24T16:40:16;3.60;99.90
12446;DHT22;6287;50.984;7.022;2023-01-24T16:42:44;3.60;99.90
12446;DHT22;6287;50.984;7.022;2023-01-24T16:45:14;3.60;99.90
12446;DHT22;6287;50.984;7.022;2023-01-24T16:47:45;3.60;99.90
12446;DHT22;6287;50.984;7.022;2023-01-24T16:50:16;3.60;99.90
12446;DHT22;6287;50.984;7.022;2023-01-24T16:52:42;3.60;99.90
12446;DHT22;6287;50.984;7.022;2023-01-24T16:55:09;3.60;99.90
12446;DHT22;6287;50.984;7.022;2023-01-24T16:57:35;3.60;99.90
12446;DHT22;6287;50.984;7.022;2023-01-24T17:00:02;3.50;99.90
12446;DHT22;6287;50.984;7.022;2023-01-24T17:02:31;3.50;99.90
12446;DHT22;6287;50.984;7.022;2023-01-24T17:04:57;3.50;99.90
12446;DHT22;6287;50.984;7.022;2023-01-24T17:07:25;3.50;99.90
12446;DHT22;6287;50.984;7.022;2023-01-24T17:09:50;3.60;99.90
12446;DHT22;6287;50.984;7.022;2023-01-24T17:12:18;3.50;99.90
12446;DHT22;6287;50.984;7.022;2023-01-24T17:14:44;3.40;99.90
12446;DHT22;6287;50.984;7.022;2023-01-24T17:17:10;3.40;99.90
12446;DHT22;6287;50.984;7.022;2023-01-24T17:19:38;3.40;99.90
12446;DHT22;6287;50.984;7.022;2023-01-24T17:22:04;3.30;99.90
12446;DHT22;6287;50.984;7.022;2023-01-24T17:24:32;3.30;99.90
12446;DHT22;6287;50.984;7.022;2023-01-24T17:26:58;3.20;99.90
12446;DHT22;6287;50.984;7.022;2023-01-24T17:29:24;3.20;99.90
12446;DHT22;6287;50.984;7.022;2023-01-24T17:31:53;3.20;99.90
12446;DHT22;6287;50.984;7.022;2023-01-24T17:34:22;3.20;99.90
12446;DHT22;6287;50.984;7.022;2023-01-24T17:36:47;3.20;99.90
12446;DHT22;6287;50.984;7.022;2023-01-24T17:39:15;3.20;99.90
12446;DHT22;6287;50.984;7.022;2023-01-24T17:41:43;3.20;99.90
12446;DHT22;6287;50.984;7.022;2023-01-24T17:44:11;3.30;99.90
12446;DHT22;6287;50.984;7.022;2023-01-24T17:46:37;3.30;99.90
12446;DHT22;6287;50.984;7.022;2023-01-24T17:49:05;3.30;99.90
12446;DHT22;6287;50.984;7.022;2023-01-24T17:51:31;3.30;99.90
12446;DHT22;6287;50.984;7.022;2023-01-24T17:54:02;3.20;99.90
12446;DHT22;6287;50.984;7.022;2023-01-24T17:56:28;3.20;99.90
12446;DHT22;6287;50.984;7.022;2023-01-24T17:58:53;3.10;99.90
12446;DHT22;6287;50.984;7.022;2023-01-24T18:01:20;3.10;99.90
12446;DHT22;6287;50.984;7.022;2023-01-24T18:03:48;3.10;99.90
12446;DHT22;6287;50.984;7.022;2023-01-24T18:06:15;3.20;99.90
12446;DHT22;6287;50.984;7.022;2023-01-24T18:08:44;3.10;99.90
12446;DHT22;6287;50.984;7.022;2023-01-24T18:11:13;3.10;99.90
12446;DHT22;6287;50.984;7.022;2023-01-24T18:13:42;3.10;99.90
12446;DHT22;6287;50.984;7.022;2023-01-24T18:16:11;3.10;99.90
12446;DHT22;6287;50.984;7.022;2023-01-24T18:18:38;3.10;99.90
12446;DHT22;6287;50.984;7.022;2023-01-24T18:21:15;3.00;99.90
12446;DHT22;6287;50.984;7.022;2023-01-24T18:23:42;3.00;99.90
12446;DHT22;6287;50.984;7.022;2023-01-24T18:26:10;3.00;99.90
12446;DHT22;6287;50.984;7.022;2023-01-24T18:28:36;3.00;99.90
12446;DHT22;6287;50.984;7.022;2023-01-24T18:31:08;3.00;99.90
12446;DHT22;6287;50.984;7.022;2023-01-24T18:33:35;2.90;99.90
12446;DHT22;6287;50.984;7.022;2023-01-24T18:36:05;2.90;99.90
12446;DHT22;6287;50.984;7.022;2023-01-24T18:38:34;2.90;99.90
12446;DHT22;6287;50.984;7.022;2023-01-24T18:41:00;2.90;99.90
12446;DHT22;6287;50.984;7.022;2023-01-24T18:43:28;2.90;99.90
12446;DHT22;6287;50.984;7.022;2023-01-24T18:45:53;2.90;99.90
12446;DHT22;6287;50.984;7.022;2023-01-24T18:48:19;2.90;99.90
12446;DHT22;6287;50.984;7.022;2023-01-24T18:50:44;2.90;99.90
12446;DHT22;6287;50.984;7.022;2023-01-24T18:53:14;2.90;99.90
12446;DHT22;6287;50.984;7.022;2023-01-24T18:55:40;2.90;99.90
12446;DHT22;6287;50.984;7.022;2023-01-24T18:58:08;2.90;99.90
12446;DHT22;6287;50.984;7.022;2023-01-24T19:00:36;2.90;99.90
12446;DHT22;6287;50.984;7.022;2023-01-24T19:03:03;5.00;99.90
12446;DHT22;6287;50.984;7.022;2023-01-24T19:05:32;2.90;99.90
12446;DHT22;6287;50.984;7.022;2023-01-24T19:07:58;2.80;99.90
12446;DHT22;6287;50.984;7.022;2023-01-24T19:10:26;2.80;99.90
12446;DHT22;6287;50.984;7.022;2023-01-24T19:12:53;2.90;99.90